sensor_id;sensor_type;location;lat;lon;timestamp;P1;durP1;ratioP1;P2;durP2;ratioP2
26686;SDS011;14298;50.900;4.648;2022-07-05T00:02:10;5.17;;;3.70;;
26686;SDS011;14298;50.900;4.648;2022-07-05T00:04:38;5.37;;;3.73;;
26686;SDS011;14298;50.900;4.648;2022-07-05T00:07:07;3.13;;;2.83;;
26686;SDS011;14298;50.900;4.648;2022-07-05T00:09:51;3.83;;;3.03;;
26686;SDS011;14298;50.900;4.648;2022-07-05T00:12:16;6.13;;;3.37;;
26686;SDS011;14298;50.900;4.648;2022-07-05T00:14:46;3.37;;;3.07;;
26686;SDS011;14298;50.900;4.648;2022-07-05T00:17:15;6.43;;;3.40;;
26686;SDS011;14298;50.900;4.648;2022-07-05T00:19:44;6.73;;;3.70;;
26686;SDS011;14298;50.900;4.648;2022-07-05T00:22:12;5.27;;;3.67;;
26686;SDS011;14298;50.900;4.648;2022-07-05T00:24:41;4.07;;;3.57;;
26686;SDS011;14298;50.900;4.648;2022-07-05T00:27:09;8.13;;;3.50;;
26686;SDS011;14298;50.900;4.648;2022-07-05T00:29:37;5.13;;;4.10;;
26686;SDS011;14298;50.900;4.648;2022-07-05T00:32:06;4.77;;;4.03;;
26686;SDS011;14298;50.900;4.648;2022-07-05T00:34:34;6.10;;;4.00;;
26686;SDS011;14298;50.900;4.648;2022-07-05T00:37:03;5.53;;;4.13;;
26686;SDS011;14298;50.900;4.648;2022-07-05T00:39:31;7.03;;;4.40;;
26686;SDS011;14298;50.900;4.648;2022-07-05T00:42:01;5.90;;;4.90;;
26686;SDS011;14298;50.900;4.648;2022-07-05T00:44:30;6.07;;;4.73;;
26686;SDS011;14298;50.900;4.648;2022-07-05T00:47:02;8.37;;;4.87;;
26686;SDS011;14298;50.900;4.648;2022-07-05T00:49:32;6.70;;;4.83;;
26686;SDS011;14298;50.900;4.648;2022-07-05T00:52:02;6.77;;;4.20;;
26686;SDS011;14298;50.900;4.648;2022-07-05T00:54:32;5.77;;;4.43;;
26686;SDS011;14298;50.900;4.648;2022-07-05T00:57:02;6.63;;;4.23;;
26686;SDS011;14298;50.900;4.648;2022-07-05T00:59:32;4.23;;;3.77;;
26686;SDS011;14298;50.900;4.648;2022-07-05T01:02:01;5.03;;;3.90;;
26686;SDS011;14298;50.900;4.648;2022-07-05T01:04:29;3.93;;;3.53;;
26686;SDS011;14298;50.900;4.648;2022-07-05T01:06:58;4.33;;;3.60;;
26686;SDS011;14298;50.900;4.648;2022-07-05T01:09:27;6.33;;;3.53;;
26686;SDS011;14298;50.900;4.648;2022-07-05T01:11:56;5.23;;;3.90;;
26686;SDS011;14298;50.900;4.648;2022-07-05T01:14:24;5.17;;;3.67;;
26686;SDS011;14298;50.900;4.648;2022-07-05T01:16:53;4.00;;;3.60;;
26686;SDS011;14298;50.900;4.648;2022-07-05T01:19:21;4.77;;;3.80;;
26686;SDS011;14298;50.900;4.648;2022-07-05T01:21:51;7.60;;;3.70;;
26686;SDS011;14298;50.900;4.648;2022-07-05T01:24:21;5.07;;;3.70;;
26686;SDS011;14298;50.900;4.648;2022-07-05T01:26:51;8.17;;;3.73;;
26686;SDS011;14298;50.900;4.648;2022-07-05T01:29:20;5.77;;;4.20;;
26686;SDS011;14298;50.900;4.648;2022-07-05T01:31:49;5.17;;;4.40;;
26686;SDS011;14298;50.900;4.648;2022-07-05T01:34:17;6.77;;;4.40;;
26686;SDS011;14298;50.900;4.648;2022-07-05T01:36:46;5.30;;;4.20;;
26686;SDS011;14298;50.900;4.648;2022-07-05T01:39:15;4.70;;;4.10;;
26686;SDS011;14298;50.900;4.648;2022-07-05T01:41:44;4.73;;;3.87;;
26686;SDS011;14298;50.900;4.648;2022-07-05T01:44:13;5.27;;;4.30;;
26686;SDS011;14298;50.900;4.648;2022-07-05T01:46:42;6.87;;;4.23;;
26686;SDS011;14298;50.900;4.648;2022-07-05T01:49:11;5.63;;;4.20;;
26686;SDS011;14298;50.900;4.648;2022-07-05T01:51:49;4.27;;;3.80;;
26686;SDS011;14298;50.900;4.648;2022-07-05T01:54:19;6.13;;;4.10;;
26686;SDS011;14298;50.900;4.648;2022-07-05T01:56:48;6.00;;;4.23;;
26686;SDS011;14298;50.900;4.648;2022-07-05T01:59:16;4.20;;;3.80;;
26686;SDS011;14298;50.900;4.648;2022-07-05T02:01:45;6.83;;;4.27;;
26686;SDS011;14298;50.900;4.648;2022-07-05T02:04:13;6.10;;;4.30;;
26686;SDS011;14298;50.900;4.648;2022-07-05T02:06:42;4.67;;;4.13;;
26686;SDS011;14298;50.900;4.648;2022-07-05T02:09:12;6.73;;;3.97;;
26686;SDS011;14298;50.900;4.648;2022-07-05T02:11:40;4.47;;;4.07;;
26686;SDS011;14298;50.900;4.648;2022-07-05T02:14:09;6.63;;;4.57;;
26686;SDS011;14298;50.900;4.648;2022-07-05T02:16:38;5.60;;;4.47;;
26686;SDS011;14298;50.900;4.648;2022-07-05T02:19:07;5.03;;;4.53;;
26686;SDS011;14298;50.900;4.648;2022-07-05T02:21:35;5.23;;;4.43;;
26686;SDS011;14298;50.900;4.648;2022-07-05T02:24:04;6.50;;;4.47;;
26686;SDS011;14298;50.900;4.648;2022-07-05T02:26:33;4.37;;;3.83;;
26686;SDS011;14298;50.900;4.648;2022-07-05T02:29:02;5.10;;;4.10;;
26686;SDS011;14298;50.900;4.648;2022-07-05T02:31:31;5.43;;;3.90;;
26686;SDS011;14298;50.900;4.648;2022-07-05T02:34:00;8.37;;;4.80;;
26686;SDS011;14298;50.900;4.648;2022-07-05T02:36:29;5.23;;;4.37;;
26686;SDS011;14298;50.900;4.648;2022-07-05T02:38:57;5.07;;;4.57;;
26686;SDS011;14298;50.900;4.648;2022-07-05T02:41:25;10.63;;;6.33;;
26686;SDS011;14298;50.900;4.648;2022-07-05T02:43:53;11.30;;;6.17;;
26686;SDS011;14298;50.900;4.648;2022-07-05T02:46:22;5.90;;;5.03;;
26686;SDS011;14298;50.900;4.648;2022-07-05T02:48:50;10.47;;;4.87;;
26686;SDS011;14298;50.900;4.648;2022-07-05T02:51:19;6.30;;;4.87;;
26686;SDS011;14298;50.900;4.648;2022-07-05T02:53:47;6.67;;;5.77;;
26686;SDS011;14298;50.900;4.648;2022-07-05T02:56:16;9.77;;;5.50;;
26686;SDS011;14298;50.900;4.648;2022-07-05T02:58:45;6.27;;;5.20;;
26686;SDS011;14298;50.900;4.648;2022-07-05T03:01:13;5.53;;;4.73;;
26686;SDS011;14298;50.900;4.648;2022-07-05T03:03:41;6.77;;;4.13;;
26686;SDS011;14298;50.900;4.648;2022-07-05T03:06:10;4.50;;;4.10;;
26686;SDS011;14298;50.900;4.648;2022-07-05T03:08:38;5.27;;;4.40;;
26686;SDS011;14298;50.900;4.648;2022-07-05T03:11:07;4.73;;;4.33;;
26686;SDS011;14298;50.900;4.648;2022-07-05T03:13:38;7.90;;;5.10;;
26686;SDS011;14298;50.900;4.648;2022-07-05T03:16:06;4.90;;;4.40;;
26686;SDS011;14298;50.900;4.648;2022-07-05T03:18:35;5.37;;;4.27;;
26686;SDS011;14298;50.900;4.648;2022-07-05T03:21:03;4.87;;;4.30;;
26686;SDS011;14298;50.900;4.648;2022-07-05T03:23:31;6.13;;;4.43;;
26686;SDS011;14298;50.900;4.648;2022-07-05T03:26:00;6.10;;;4.70;;
26686;SDS011;14298;50.900;4.648;2022-07-05T03:28:28;5.20;;;4.27;;
26686;SDS011;14298;50.900;4.648;2022-07-05T03:30:57;8.93;;;4.33;;
26686;SDS011;14298;50.900;4.648;2022-07-05T03:33:25;8.47;;;4.40;;
26686;SDS011;14298;50.900;4.648;2022-07-05T03:35:54;5.73;;;4.43;;
26686;SDS011;14298;50.900;4.648;2022-07-05T03:38:22;6.50;;;4.57;;
26686;SDS011;14298;50.900;4.648;2022-07-05T03:40:51;5.23;;;4.13;;
26686;SDS011;14298;50.900;4.648;2022-07-05T03:43:19;6.53;;;4.70;;
26686;SDS011;14298;50.900;4.648;2022-07-05T03:45:48;9.83;;;4.67;;
26686;SDS011;14298;50.900;4.648;2022-07-05T03:48:16;6.00;;;4.43;;
26686;SDS011;14298;50.900;4.648;2022-07-05T03:50:44;8.67;;;4.37;;
26686;SDS011;14298;50.900;4.648;2022-07-05T03:53:13;6.57;;;4.73;;
26686;SDS011;14298;50.900;4.648;2022-07-05T03:55:41;6.03;;;4.37;;
26686;SDS011;14298;50.900;4.648;2022-07-05T03:58:10;7.03;;;4.27;;
26686;SDS011;14298;50.900;4.648;2022-07-05T04:00:38;9.47;;;5.50;;
26686;SDS011;14298;50.900;4.648;2022-07-05T04:03:07;6.00;;;4.73;;
26686;SDS011;14298;50.900;4.648;2022-07-05T04:05:35;6.83;;;5.00;;
26686;SDS011;14298;50.900;4.648;2022-07-05T04:08:04;5.13;;;4.20;;
26686;SDS011;14298;50.900;4.648;2022-07-05T04:10:32;7.43;;;4.57;;
26686;SDS011;14298;50.900;4.648;2022-07-05T04:13:00;6.43;;;4.70;;
26686;SDS011;14298;50.900;4.648;2022-07-05T04:15:29;6.77;;;4.57;;
26686;SDS011;14298;50.900;4.648;2022-07-05T04:17:57;7.93;;;5.93;;
26686;SDS011;14298;50.900;4.648;2022-07-05T04:20:25;8.03;;;5.40;;
26686;SDS011;14298;50.900;4.648;2022-07-05T04:22:54;10.10;;;6.47;;
26686;SDS011;14298;50.900;4.648;2022-07-05T04:25:23;9.73;;;6.07;;
26686;SDS011;14298;50.900;4.648;2022-07-05T04:27:52;7.67;;;5.33;;
26686;SDS011;14298;50.900;4.648;2022-07-05T04:30:23;6.67;;;5.07;;
26686;SDS011;14298;50.900;4.648;2022-07-05T04:32:52;8.60;;;5.33;;
26686;SDS011;14298;50.900;4.648;2022-07-05T04:35:20;12.53;;;5.23;;
26686;SDS011;14298;50.900;4.648;2022-07-05T04:37:49;10.70;;;5.43;;
26686;SDS011;14298;50.900;4.648;2022-07-05T04:40:17;6.83;;;4.83;;
26686;SDS011;14298;50.900;4.648;2022-07-05T04:42:46;6.63;;;4.70;;
26686;SDS011;14298;50.900;4.648;2022-07-05T04:45:14;6.37;;;5.27;;
26686;SDS011;14298;50.900;4.648;2022-07-05T04:47:43;6.77;;;4.53;;
26686;SDS011;14298;50.900;4.648;2022-07-05T04:50:11;5.33;;;4.40;;
26686;SDS011;14298;50.900;4.648;2022-07-05T04:52:40;6.87;;;4.10;;
26686;SDS011;14298;50.900;4.648;2022-07-05T04:55:08;5.87;;;4.43;;
26686;SDS011;14298;50.900;4.648;2022-07-05T04:57:39;7.07;;;4.13;;
26686;SDS011;14298;50.900;4.648;2022-07-05T05:00:09;5.33;;;3.83;;
26686;SDS011;14298;50.900;4.648;2022-07-05T05:02:39;6.83;;;3.70;;
26686;SDS011;14298;50.900;4.648;2022-07-05T05:05:08;6.90;;;4.20;;
26686;SDS011;14298;50.900;4.648;2022-07-05T05:07:40;6.23;;;3.87;;
26686;SDS011;14298;50.900;4.648;2022-07-05T05:10:10;7.97;;;3.30;;
26686;SDS011;14298;50.900;4.648;2022-07-05T05:12:39;8.43;;;3.83;;
26686;SDS011;14298;50.900;4.648;2022-07-05T05:15:08;6.57;;;3.90;;
26686;SDS011;14298;50.900;4.648;2022-07-05T05:17:41;9.37;;;3.87;;
26686;SDS011;14298;50.900;4.648;2022-07-05T05:20:11;6.10;;;3.90;;
26686;SDS011;14298;50.900;4.648;2022-07-05T05:22:41;8.00;;;4.20;;
26686;SDS011;14298;50.900;4.648;2022-07-05T05:25:10;7.37;;;4.40;;
26686;SDS011;14298;50.900;4.648;2022-07-05T05:27:43;7.93;;;3.90;;
26686;SDS011;14298;50.900;4.648;2022-07-05T05:30:13;7.57;;;4.00;;
26686;SDS011;14298;50.900;4.648;2022-07-05T05:32:42;7.07;;;3.97;;
26686;SDS011;14298;50.900;4.648;2022-07-05T05:35:11;4.67;;;3.90;;
26686;SDS011;14298;50.900;4.648;2022-07-05T05:37:49;9.30;;;3.70;;
26686;SDS011;14298;50.900;4.648;2022-07-05T05:40:20;5.03;;;3.63;;
26686;SDS011;14298;50.900;4.648;2022-07-05T05:42:50;8.00;;;4.07;;
26686;SDS011;14298;50.900;4.648;2022-07-05T05:45:20;5.70;;;4.00;;
26686;SDS011;14298;50.900;4.648;2022-07-05T05:47:49;7.40;;;3.57;;
26686;SDS011;14298;50.900;4.648;2022-07-05T05:50:23;6.67;;;3.70;;
26686;SDS011;14298;50.900;4.648;2022-07-05T05:52:53;6.77;;;4.03;;
26686;SDS011;14298;50.900;4.648;2022-07-05T05:55:25;10.23;;;3.90;;
26686;SDS011;14298;50.900;4.648;2022-07-05T05:57:55;16.20;;;4.60;;
26686;SDS011;14298;50.900;4.648;2022-07-05T06:00:24;24.43;;;4.43;;
26686;SDS011;14298;50.900;4.648;2022-07-05T06:02:53;24.73;;;5.63;;
26686;SDS011;14298;50.900;4.648;2022-07-05T06:05:21;20.17;;;4.70;;
26686;SDS011;14298;50.900;4.648;2022-07-05T06:07:50;20.87;;;4.83;;
26686;SDS011;14298;50.900;4.648;2022-07-05T06:10:21;17.73;;;4.53;;
26686;SDS011;14298;50.900;4.648;2022-07-05T06:12:54;8.37;;;3.07;;
26686;SDS011;14298;50.900;4.648;2022-07-05T06:15:25;5.40;;;2.83;;
26686;SDS011;14298;50.900;4.648;2022-07-05T06:17:54;7.10;;;3.33;;
26686;SDS011;14298;50.900;4.648;2022-07-05T06:20:23;4.63;;;3.20;;
26686;SDS011;14298;50.900;4.648;2022-07-05T06:22:53;6.90;;;3.40;;
26686;SDS011;14298;50.900;4.648;2022-07-05T06:25:22;10.73;;;3.53;;
26686;SDS011;14298;50.900;4.648;2022-07-05T06:27:51;4.73;;;3.10;;
26686;SDS011;14298;50.900;4.648;2022-07-05T06:30:22;6.93;;;3.20;;
26686;SDS011;14298;50.900;4.648;2022-07-05T06:32:52;5.90;;;3.30;;
26686;SDS011;14298;50.900;4.648;2022-07-05T06:35:21;4.83;;;2.97;;
26686;SDS011;14298;50.900;4.648;2022-07-05T06:37:51;6.70;;;3.10;;
26686;SDS011;14298;50.900;4.648;2022-07-05T06:40:21;6.07;;;2.80;;
26686;SDS011;14298;50.900;4.648;2022-07-05T06:42:52;7.03;;;2.77;;
26686;SDS011;14298;50.900;4.648;2022-07-05T06:45:22;6.58;;;3.05;;
26686;SDS011;14298;50.900;4.648;2022-07-05T06:48:01;5.20;;;3.00;;
26686;SDS011;14298;50.900;4.648;2022-07-05T06:50:32;6.27;;;2.43;;
26686;SDS011;14298;50.900;4.648;2022-07-05T06:53:03;5.17;;;2.50;;
26686;SDS011;14298;50.900;4.648;2022-07-05T06:55:32;5.50;;;2.50;;
26686;SDS011;14298;50.900;4.648;2022-07-05T06:58:05;4.37;;;2.33;;
26686;SDS011;14298;50.900;4.648;2022-07-05T07:00:35;5.53;;;2.72;;
26686;SDS011;14298;50.900;4.648;2022-07-05T07:03:03;4.57;;;2.57;;
26686;SDS011;14298;50.900;4.648;2022-07-05T07:05:31;9.60;;;3.00;;
26686;SDS011;14298;50.900;4.648;2022-07-05T07:08:00;4.63;;;2.57;;
26686;SDS011;14298;50.900;4.648;2022-07-05T07:10:46;5.97;;;2.57;;
26686;SDS011;14298;50.900;4.648;2022-07-05T07:13:14;12.10;;;3.33;;
26686;SDS011;14298;50.900;4.648;2022-07-05T07:15:43;5.83;;;3.00;;
26686;SDS011;14298;50.900;4.648;2022-07-05T07:18:13;10.80;;;2.93;;
26686;SDS011;14298;50.900;4.648;2022-07-05T07:20:42;5.90;;;3.08;;
26686;SDS011;14298;50.900;4.648;2022-07-05T07:23:10;7.30;;;3.27;;
26686;SDS011;14298;50.900;4.648;2022-07-05T07:25:38;7.53;;;3.25;;
26686;SDS011;14298;50.900;4.648;2022-07-05T07:28:07;6.50;;;3.02;;
26686;SDS011;14298;50.900;4.648;2022-07-05T07:30:35;5.55;;;3.05;;
26686;SDS011;14298;50.900;4.648;2022-07-05T07:33:04;12.43;;;3.60;;
26686;SDS011;14298;50.900;4.648;2022-07-05T07:35:32;7.40;;;3.35;;
26686;SDS011;14298;50.900;4.648;2022-07-05T07:38:01;8.25;;;4.05;;
26686;SDS011;14298;50.900;4.648;2022-07-05T07:40:29;6.10;;;3.60;;
26686;SDS011;14298;50.900;4.648;2022-07-05T07:42:57;11.70;;;4.40;;
26686;SDS011;14298;50.900;4.648;2022-07-05T07:45:26;10.58;;;4.25;;
26686;SDS011;14298;50.900;4.648;2022-07-05T07:47:56;12.07;;;4.60;;
26686;SDS011;14298;50.900;4.648;2022-07-05T07:50:24;10.63;;;4.30;;
26686;SDS011;14298;50.900;4.648;2022-07-05T07:52:52;8.13;;;3.50;;
26686;SDS011;14298;50.900;4.648;2022-07-05T07:55:21;11.78;;;3.87;;
26686;SDS011;14298;50.900;4.648;2022-07-05T07:57:49;6.67;;;3.62;;
26686;SDS011;14298;50.900;4.648;2022-07-05T08:00:18;9.50;;;3.50;;
26686;SDS011;14298;50.900;4.648;2022-07-05T08:02:46;9.95;;;3.77;;
26686;SDS011;14298;50.900;4.648;2022-07-05T08:05:15;11.22;;;3.83;;
26686;SDS011;14298;50.900;4.648;2022-07-05T08:07:43;7.15;;;3.70;;
26686;SDS011;14298;50.900;4.648;2022-07-05T08:10:11;7.55;;;3.60;;
26686;SDS011;14298;50.900;4.648;2022-07-05T08:12:40;7.97;;;3.27;;
26686;SDS011;14298;50.900;4.648;2022-07-05T08:15:08;8.80;;;3.58;;
26686;SDS011;14298;50.900;4.648;2022-07-05T08:17:37;7.45;;;3.95;;
26686;SDS011;14298;50.900;4.648;2022-07-05T08:20:08;7.75;;;3.35;;
26686;SDS011;14298;50.900;4.648;2022-07-05T08:22:55;12.43;;;3.12;;
26686;SDS011;14298;50.900;4.648;2022-07-05T08:25:23;7.87;;;3.17;;
26686;SDS011;14298;50.900;4.648;2022-07-05T08:27:51;10.15;;;3.35;;
26686;SDS011;14298;50.900;4.648;2022-07-05T08:30:20;10.48;;;2.92;;
26686;SDS011;14298;50.900;4.648;2022-07-05T08:32:48;5.95;;;2.92;;
26686;SDS011;14298;50.900;4.648;2022-07-05T08:35:16;6.65;;;2.98;;
26686;SDS011;14298;50.900;4.648;2022-07-05T08:37:45;5.50;;;3.05;;
26686;SDS011;14298;50.900;4.648;2022-07-05T08:40:13;5.08;;;2.90;;
26686;SDS011;14298;50.900;4.648;2022-07-05T08:42:44;8.13;;;2.52;;
26686;SDS011;14298;50.900;4.648;2022-07-05T08:45:14;7.90;;;2.55;;
26686;SDS011;14298;50.900;4.648;2022-07-05T08:47:43;6.12;;;2.10;;
26686;SDS011;14298;50.900;4.648;2022-07-05T08:50:12;5.87;;;2.58;;
26686;SDS011;14298;50.900;4.648;2022-07-05T08:52:42;6.28;;;2.05;;
26686;SDS011;14298;50.900;4.648;2022-07-05T08:55:12;7.22;;;2.45;;
26686;SDS011;14298;50.900;4.648;2022-07-05T08:57:42;6.15;;;2.45;;
26686;SDS011;14298;50.900;4.648;2022-07-05T09:00:11;3.52;;;1.85;;
26686;SDS011;14298;50.900;4.648;2022-07-05T09:02:40;7.03;;;1.80;;
26686;SDS011;14298;50.900;4.648;2022-07-05T09:05:09;6.62;;;1.87;;
26686;SDS011;14298;50.900;4.648;2022-07-05T09:07:43;5.62;;;1.87;;
26686;SDS011;14298;50.900;4.648;2022-07-05T09:10:12;3.45;;;1.67;;
26686;SDS011;14298;50.900;4.648;2022-07-05T09:12:41;2.37;;;1.47;;
26686;SDS011;14298;50.900;4.648;2022-07-05T09:15:10;5.30;;;1.70;;
26686;SDS011;14298;50.900;4.648;2022-07-05T09:17:42;2.85;;;1.52;;
26686;SDS011;14298;50.900;4.648;2022-07-05T09:20:14;5.75;;;1.60;;
26686;SDS011;14298;50.900;4.648;2022-07-05T09:22:50;6.80;;;2.12;;
26686;SDS011;14298;50.900;4.648;2022-07-05T09:27:52;6.05;;;1.67;;
26686;SDS011;14298;50.900;4.648;2022-07-05T09:33:04;4.80;;;2.20;;
26686;SDS011;14298;50.900;4.648;2022-07-05T09:35:56;4.75;;;1.90;;
26686;SDS011;14298;50.900;4.648;2022-07-05T09:38:25;4.57;;;2.00;;
26686;SDS011;14298;50.900;4.648;2022-07-05T09:40:55;6.27;;;1.90;;
26686;SDS011;14298;50.900;4.648;2022-07-05T09:43:25;4.67;;;1.60;;
26686;SDS011;14298;50.900;4.648;2022-07-05T09:45:56;4.47;;;1.40;;
26686;SDS011;14298;50.900;4.648;2022-07-05T09:48:27;4.28;;;1.80;;
26686;SDS011;14298;50.900;4.648;2022-07-05T09:51:06;4.80;;;1.92;;
26686;SDS011;14298;50.900;4.648;2022-07-05T09:53:46;4.70;;;1.80;;
26686;SDS011;14298;50.900;4.648;2022-07-05T09:56:16;7.42;;;1.95;;
26686;SDS011;14298;50.900;4.648;2022-07-05T09:58:44;6.60;;;2.20;;
26686;SDS011;14298;50.900;4.648;2022-07-05T10:01:26;4.87;;;2.30;;
26686;SDS011;14298;50.900;4.648;2022-07-05T10:03:59;7.75;;;2.30;;
26686;SDS011;14298;50.900;4.648;2022-07-05T10:06:31;7.33;;;2.10;;
26686;SDS011;14298;50.900;4.648;2022-07-05T10:09:00;6.42;;;2.45;;
26686;SDS011;14298;50.900;4.648;2022-07-05T10:11:28;8.63;;;2.58;;
26686;SDS011;14298;50.900;4.648;2022-07-05T10:13:58;5.40;;;2.15;;
26686;SDS011;14298;50.900;4.648;2022-07-05T10:16:28;5.57;;;2.10;;
26686;SDS011;14298;50.900;4.648;2022-07-05T10:18:57;8.10;;;2.73;;
26686;SDS011;14298;50.900;4.648;2022-07-05T10:21:25;8.20;;;3.17;;
26686;SDS011;14298;50.900;4.648;2022-07-05T10:23:55;12.10;;;2.57;;
26686;SDS011;14298;50.900;4.648;2022-07-05T10:26:24;6.90;;;2.17;;
26686;SDS011;14298;50.900;4.648;2022-07-05T10:28:54;8.50;;;2.70;;
26686;SDS011;14298;50.900;4.648;2022-07-05T10:31:23;8.47;;;3.00;;
26686;SDS011;14298;50.900;4.648;2022-07-05T10:33:52;10.73;;;2.73;;
26686;SDS011;14298;50.900;4.648;2022-07-05T10:36:21;7.40;;;2.90;;
26686;SDS011;14298;50.900;4.648;2022-07-05T10:38:51;6.30;;;2.87;;
26686;SDS011;14298;50.900;4.648;2022-07-05T10:41:22;7.57;;;2.93;;
26686;SDS011;14298;50.900;4.648;2022-07-05T10:43:57;7.00;;;2.90;;
26686;SDS011;14298;50.900;4.648;2022-07-05T10:46:32;4.47;;;2.50;;
26686;SDS011;14298;50.900;4.648;2022-07-05T10:49:13;7.30;;;3.07;;
26686;SDS011;14298;50.900;4.648;2022-07-05T10:51:43;6.63;;;2.60;;
26686;SDS011;14298;50.900;4.648;2022-07-05T10:54:11;6.93;;;2.73;;
26686;SDS011;14298;50.900;4.648;2022-07-05T10:56:40;4.27;;;2.80;;
26686;SDS011;14298;50.900;4.648;2022-07-05T10:59:08;8.43;;;2.90;;
26686;SDS011;14298;50.900;4.648;2022-07-05T11:01:40;5.93;;;2.90;;
26686;SDS011;14298;50.900;4.648;2022-07-05T11:04:19;4.90;;;2.83;;
26686;SDS011;14298;50.900;4.648;2022-07-05T11:06:56;4.50;;;2.20;;
26686;SDS011;14298;50.900;4.648;2022-07-05T11:09:25;4.37;;;2.53;;
26686;SDS011;14298;50.900;4.648;2022-07-05T11:14:33;5.05;;;2.42;;
26686;SDS011;14298;50.900;4.648;2022-07-05T11:22:29;6.87;;;2.50;;
26686;SDS011;14298;50.900;4.648;2022-07-05T11:24:58;3.27;;;2.15;;
26686;SDS011;14298;50.900;4.648;2022-07-05T11:27:27;3.92;;;2.40;;
26686;SDS011;14298;50.900;4.648;2022-07-05T11:29:56;5.15;;;2.75;;
26686;SDS011;14298;50.900;4.648;2022-07-05T11:35:18;5.40;;;2.45;;
26686;SDS011;14298;50.900;4.648;2022-07-05T11:37:57;8.08;;;2.10;;
26686;SDS011;14298;50.900;4.648;2022-07-05T11:40:29;7.97;;;2.43;;
26686;SDS011;14298;50.900;4.648;2022-07-05T11:42:58;5.00;;;2.80;;
26686;SDS011;14298;50.900;4.648;2022-07-05T11:45:29;8.30;;;2.67;;
26686;SDS011;14298;50.900;4.648;2022-07-05T11:47:58;4.97;;;2.00;;
26686;SDS011;14298;50.900;4.648;2022-07-05T11:50:29;8.57;;;2.93;;
26686;SDS011;14298;50.900;4.648;2022-07-05T11:53:05;7.43;;;2.90;;
26686;SDS011;14298;50.900;4.648;2022-07-05T11:55:29;9.13;;;2.80;;
26686;SDS011;14298;50.900;4.648;2022-07-05T11:57:58;5.67;;;2.53;;
26686;SDS011;14298;50.900;4.648;2022-07-05T12:00:27;4.93;;;2.23;;
26686;SDS011;14298;50.900;4.648;2022-07-05T12:02:57;4.83;;;2.23;;
26686;SDS011;14298;50.900;4.648;2022-07-05T12:05:30;6.17;;;2.20;;
26686;SDS011;14298;50.900;4.648;2022-07-05T12:07:59;7.57;;;2.53;;
26686;SDS011;14298;50.900;4.648;2022-07-05T12:10:27;6.13;;;2.03;;
26686;SDS011;14298;50.900;4.648;2022-07-05T12:13:14;3.77;;;1.87;;
26686;SDS011;14298;50.900;4.648;2022-07-05T12:15:42;4.93;;;2.00;;
26686;SDS011;14298;50.900;4.648;2022-07-05T12:18:12;4.33;;;1.73;;
26686;SDS011;14298;50.900;4.648;2022-07-05T12:20:42;5.67;;;1.90;;
26686;SDS011;14298;50.900;4.648;2022-07-05T12:23:10;5.00;;;1.73;;
26686;SDS011;14298;50.900;4.648;2022-07-05T12:25:39;6.23;;;1.90;;
26686;SDS011;14298;50.900;4.648;2022-07-05T12:28:09;3.70;;;1.63;;
26686;SDS011;14298;50.900;4.648;2022-07-05T12:30:37;6.40;;;1.80;;
26686;SDS011;14298;50.900;4.648;2022-07-05T12:33:07;5.50;;;1.70;;
26686;SDS011;14298;50.900;4.648;2022-07-05T12:35:40;5.87;;;1.80;;
26686;SDS011;14298;50.900;4.648;2022-07-05T12:38:10;4.27;;;2.07;;
26686;SDS011;14298;50.900;4.648;2022-07-05T12:40:42;6.30;;;2.00;;
26686;SDS011;14298;50.900;4.648;2022-07-05T12:43:13;3.40;;;1.73;;
26686;SDS011;14298;50.900;4.648;2022-07-05T12:46:01;3.83;;;1.87;;
26686;SDS011;14298;50.900;4.648;2022-07-05T12:48:35;9.83;;;2.30;;
26686;SDS011;14298;50.900;4.648;2022-07-05T12:51:06;4.80;;;1.77;;
26686;SDS011;14298;50.900;4.648;2022-07-05T12:53:36;8.13;;;3.30;;
26686;SDS011;14298;50.900;4.648;2022-07-05T12:56:32;6.97;;;3.00;;
26686;SDS011;14298;50.900;4.648;2022-07-05T12:59:18;5.03;;;2.90;;
26686;SDS011;14298;50.900;4.648;2022-07-05T13:01:46;10.10;;;2.57;;
26686;SDS011;14298;50.900;4.648;2022-07-05T13:04:15;3.60;;;2.70;;
26686;SDS011;14298;50.900;4.648;2022-07-05T13:06:48;7.73;;;3.40;;
26686;SDS011;14298;50.900;4.648;2022-07-05T13:09:31;4.33;;;2.60;;
26686;SDS011;14298;50.900;4.648;2022-07-05T13:12:08;7.27;;;3.60;;
26686;SDS011;14298;50.900;4.648;2022-07-05T13:14:49;6.80;;;2.80;;
26686;SDS011;14298;50.900;4.648;2022-07-05T13:17:12;3.50;;;2.70;;
26686;SDS011;14298;50.900;4.648;2022-07-05T13:19:42;5.90;;;2.03;;
26686;SDS011;14298;50.900;4.648;2022-07-05T13:22:12;3.60;;;2.27;;
26686;SDS011;14298;50.900;4.648;2022-07-05T13:24:41;2.77;;;1.97;;
26686;SDS011;14298;50.900;4.648;2022-07-05T13:27:10;7.00;;;2.27;;
26686;SDS011;14298;50.900;4.648;2022-07-05T13:29:40;3.03;;;1.70;;
26686;SDS011;14298;50.900;4.648;2022-07-05T13:32:08;8.57;;;2.20;;
26686;SDS011;14298;50.900;4.648;2022-07-05T13:34:37;5.17;;;2.00;;
26686;SDS011;14298;50.900;4.648;2022-07-05T13:37:06;5.43;;;2.13;;
26686;SDS011;14298;50.900;4.648;2022-07-05T13:39:34;3.07;;;1.47;;
26686;SDS011;14298;50.900;4.648;2022-07-05T13:42:05;4.17;;;1.33;;
26686;SDS011;14298;50.900;4.648;2022-07-05T13:44:34;6.50;;;1.40;;
26686;SDS011;14298;50.900;4.648;2022-07-05T13:47:02;3.97;;;1.53;;
26686;SDS011;14298;50.900;4.648;2022-07-05T13:49:31;4.93;;;1.73;;
26686;SDS011;14298;50.900;4.648;2022-07-05T13:52:00;3.07;;;1.30;;
26686;SDS011;14298;50.900;4.648;2022-07-05T13:54:28;4.40;;;1.43;;
26686;SDS011;14298;50.900;4.648;2022-07-05T13:56:57;4.20;;;1.60;;
26686;SDS011;14298;50.900;4.648;2022-07-05T13:59:25;5.93;;;1.40;;
26686;SDS011;14298;50.900;4.648;2022-07-05T14:01:53;2.40;;;1.60;;
26686;SDS011;14298;50.900;4.648;2022-07-05T14:04:23;4.23;;;1.77;;
26686;SDS011;14298;50.900;4.648;2022-07-05T14:06:53;6.90;;;1.47;;
26686;SDS011;14298;50.900;4.648;2022-07-05T14:09:21;3.10;;;1.70;;
26686;SDS011;14298;50.900;4.648;2022-07-05T14:11:51;6.73;;;1.60;;
26686;SDS011;14298;50.900;4.648;2022-07-05T14:14:20;2.03;;;1.47;;
26686;SDS011;14298;50.900;4.648;2022-07-05T14:16:48;4.97;;;2.03;;
26686;SDS011;14298;50.900;4.648;2022-07-05T14:19:16;3.30;;;1.43;;
26686;SDS011;14298;50.900;4.648;2022-07-05T14:21:45;4.27;;;1.60;;
26686;SDS011;14298;50.900;4.648;2022-07-05T14:24:13;4.03;;;1.30;;
26686;SDS011;14298;50.900;4.648;2022-07-05T14:26:42;4.33;;;1.70;;
26686;SDS011;14298;50.900;4.648;2022-07-05T14:29:10;2.70;;;1.20;;
26686;SDS011;14298;50.900;4.648;2022-07-05T14:31:38;4.20;;;1.33;;
26686;SDS011;14298;50.900;4.648;2022-07-05T14:34:07;4.33;;;1.30;;
26686;SDS011;14298;50.900;4.648;2022-07-05T14:36:35;3.97;;;1.30;;
26686;SDS011;14298;50.900;4.648;2022-07-05T14:39:04;4.77;;;1.33;;
26686;SDS011;14298;50.900;4.648;2022-07-05T14:41:32;3.10;;;1.03;;
26686;SDS011;14298;50.900;4.648;2022-07-05T14:44:00;7.77;;;0.90;;
26686;SDS011;14298;50.900;4.648;2022-07-05T14:46:29;2.50;;;0.90;;
26686;SDS011;14298;50.900;4.648;2022-07-05T14:48:57;4.27;;;1.10;;
26686;SDS011;14298;50.900;4.648;2022-07-05T14:51:25;5.80;;;1.40;;
26686;SDS011;14298;50.900;4.648;2022-07-05T14:53:54;4.60;;;1.30;;
26686;SDS011;14298;50.900;4.648;2022-07-05T14:56:22;5.07;;;1.20;;
26686;SDS011;14298;50.900;4.648;2022-07-05T14:58:50;3.13;;;1.00;;
26686;SDS011;14298;50.900;4.648;2022-07-05T15:01:19;2.30;;;1.07;;
26686;SDS011;14298;50.900;4.648;2022-07-05T15:03:47;2.80;;;1.30;;
26686;SDS011;14298;50.900;4.648;2022-07-05T15:06:15;5.33;;;1.10;;
26686;SDS011;14298;50.900;4.648;2022-07-05T15:08:44;4.10;;;0.97;;
26686;SDS011;14298;50.900;4.648;2022-07-05T15:11:12;6.60;;;1.20;;
26686;SDS011;14298;50.900;4.648;2022-07-05T15:13:40;4.90;;;1.13;;
26686;SDS011;14298;50.900;4.648;2022-07-05T15:16:09;6.97;;;1.20;;
26686;SDS011;14298;50.900;4.648;2022-07-05T15:18:38;3.13;;;1.10;;